sensor_id;sensor_type;location;lat;lon;timestamp;pressure;altitude;pressure_sealevel;temperature;humidity
37486;BME280;23341;50.296;18.960;2023-08-07T00:01:55;52961.81;;;-144.43;100.00
37486;BME280;23341;50.296;18.960;2023-08-07T00:06:59;52953.81;;;-144.43;100.00
37486;BME280;23341;50.296;18.960;2023-08-07T00:12:03;53015.81;;;-144.43;100.00
37486;BME280;23341;50.296;18.960;2023-08-07T00:17:08;52993.81;;;-144.43;100.00
37486;BME280;23341;50.296;18.960;2023-08-07T00:22:12;52977.81;;;-144.43;100.00
37486;BME280;23341;50.296;18.960;2023-08-07T00:27:16;52961.81;;;-144.43;100.00
37486;BME280;23341;50.296;18.960;2023-08-07T00:32:21;53049.81;;;-144.43;100.00
37486;BME280;23341;50.296;18.960;2023-08-07T00:37:25;53001.81;;;-144.43;100.00
37486;BME280;23341;50.296;18.960;2023-08-07T00:42:29;53013.81;;;-144.43;100.00
37486;BME280;23341;50.296;18.960;2023-08-07T00:47:34;53043.81;;;-144.43;100.00
37486;BME280;23341;50.296;18.960;2023-08-07T00:52:40;53025.81;;;-144.43;100.00
37486;BME280;23341;50.296;18.960;2023-08-07T00:57:44;53049.81;;;-144.43;100.00
37486;BME280;23341;50.296;18.960;2023-08-07T01:02:50;53035.81;;;-144.43;100.00
37486;BME280;23341;50.296;18.960;2023-08-07T01:07:55;52945.81;;;-144.43;100.00
37486;BME280;23341;50.296;18.960;2023-08-07T01:13:03;53013.81;;;-144.43;100.00
37486;BME280;23341;50.296;18.960;2023-08-07T01:18:10;52953.81;;;-144.43;100.00
37486;BME280;23341;50.296;18.960;2023-08-07T01:23:15;52933.81;;;-144.43;100.00
37486;BME280;23341;50.296;18.960;2023-08-07T01:28:26;52947.81;;;-144.43;100.00
37486;BME280;23341;50.296;18.960;2023-08-07T01:33:32;52929.78;;;-144.43;100.00
37486;BME280;23341;50.296;18.960;2023-08-07T01:38:40;52981.81;;;-144.43;100.00
37486;BME280;23341;50.296;18.960;2023-08-07T01:43:45;52971.81;;;-144.43;100.00
37486;BME280;23341;50.296;18.960;2023-08-07T01:48:49;52951.81;;;-144.43;100.00
37486;BME280;23341;50.296;18.960;2023-08-07T01:53:54;52923.78;;;-144.43;100.00
37486;BME280;23341;50.296;18.960;2023-08-07T01:58:57;52945.81;;;-144.43;100.00
37486;BME280;23341;50.296;18.960;2023-08-07T02:04:01;52961.81;;;-144.43;100.00
37486;BME280;23341;50.296;18.960;2023-08-07T02:09:06;52969.81;;;-144.43;100.00
37486;BME280;23341;50.296;18.960;2023-08-07T02:14:10;52985.81;;;-144.43;100.00
37486;BME280;23341;50.296;18.960;2023-08-07T02:19:13;53005.81;;;-144.43;100.00
37486;BME280;23341;50.296;18.960;2023-08-07T02:24:19;52971.81;;;-144.43;100.00
37486;BME280;23341;50.296;18.960;2023-08-07T02:29:22;52949.81;;;-144.43;100.00
37486;BME280;23341;50.296;18.960;2023-08-07T02:34:26;52945.81;;;-144.43;100.00
37486;BME280;23341;50.296;18.960;2023-08-07T02:39:31;52951.81;;;-144.43;100.00
37486;BME280;23341;50.296;18.960;2023-08-07T02:44:35;52949.81;;;-144.43;100.00
37486;BME280;23341;50.296;18.960;2023-08-07T02:49:39;52893.78;;;-144.43;100.00
37486;BME280;23341;50.296;18.960;2023-08-07T02:54:44;52985.81;;;-144.43;100.00
37486;BME280;23341;50.296;18.960;2023-08-07T02:59:48;52945.81;;;-144.43;100.00
37486;BME280;23341;50.296;18.960;2023-08-07T03:10:41;52911.78;;;-144.43;100.00
37486;BME280;23341;50.296;18.960;2023-08-07T03:15:44;52993.81;;;-144.43;100.00
37486;BME280;23341;50.296;18.960;2023-08-07T03:20:49;53007.81;;;-144.43;100.00
37486;BME280;23341;50.296;18.960;2023-08-07T03:26:03;53019.81;;;-144.43;100.00
37486;BME280;23341;50.296;18.960;2023-08-07T03:31:11;52985.81;;;-144.43;100.00
37486;BME280;23341;50.296;18.960;2023-08-07T03:36:15;53017.81;;;-144.43;100.00
37486;BME280;23341;50.296;18.960;2023-08-07T03:41:21;53019.81;;;-144.43;100.00
37486;BME280;23341;50.296;18.960;2023-08-07T03:46:24;53017.81;;;-144.43;100.00
37486;BME280;23341;50.296;18.960;2023-08-07T03:51:28;52999.81;;;-144.43;100.00
37486;BME280;23341;50.296;18.960;2023-08-07T03:56:36;53009.81;;;-144.43;100.00
37486;BME280;23341;50.296;18.960;2023-08-07T04:01:40;53035.81;;;-144.43;100.00
37486;BME280;23341;50.296;18.960;2023-08-07T04:06:44;53029.81;;;-144.43;100.00
37486;BME280;23341;50.296;18.960;2023-08-07T04:11:50;53007.81;;;-144.43;100.00
37486;BME280;23341;50.296;18.960;2023-08-07T04:16:54;53031.81;;;-144.43;100.00
37486;BME280;23341;50.296;18.960;2023-08-07T04:21:58;53063.81;;;-144.43;100.00
37486;BME280;23341;50.296;18.960;2023-08-07T04:27:04;53001.81;;;-144.43;100.00
37486;BME280;23341;50.296;18.960;2023-08-07T04:32:08;53099.84;;;-144.43;100.00
37486;BME280;23341;50.296;18.960;2023-08-07T04:37:11;53067.84;;;-144.43;100.00
37486;BME280;23341;50.296;18.960;2023-08-07T04:42:16;53131.84;;;-144.43;100.00
37486;BME280;23341;50.296;18.960;2023-08-07T04:47:20;53053.81;;;-144.43;100.00
37486;BME280;23341;50.296;18.960;2023-08-07T04:52:24;53075.84;;;-144.43;100.00
37486;BME280;23341;50.296;18.960;2023-08-07T04:57:29;53053.81;;;-144.43;100.00
37486;BME280;23341;50.296;18.960;2023-08-07T05:02:33;53029.81;;;-144.43;100.00
37486;BME280;23341;50.296;18.960;2023-08-07T05:07:37;53039.81;;;-144.43;100.00
37486;BME280;23341;50.296;18.960;2023-08-07T05:12:42;53023.81;;;-144.43;100.00
37486;BME280;23341;50.296;18.960;2023-08-07T05:17:45;53053.81;;;-144.43;100.00
37486;BME280;23341;50.296;18.960;2023-08-07T05:22:50;53035.81;;;-144.43;100.00
37486;BME280;23341;50.296;18.960;2023-08-07T05:27:55;53009.81;;;-144.43;100.00
37486;BME280;23341;50.296;18.960;2023-08-07T05:32:58;53021.81;;;-144.43;100.00
37486;BME280;23341;50.296;18.960;2023-08-07T05:38:02;53013.81;;;-144.43;100.00
37486;BME280;23341;50.296;18.960;2023-08-07T05:43:07;53011.81;;;-144.43;100.00
37486;BME280;23341;50.296;18.960;2023-08-07T05:48:13;53017.81;;;-144.43;100.00
37486;BME280;23341;50.296;18.960;2023-08-07T05:53:17;53023.81;;;-144.43;100.00
37486;BME280;23341;50.296;18.960;2023-08-07T05:58:22;53029.81;;;-144.43;100.00
37486;BME280;23341;50.296;18.960;2023-08-07T06:03:25;53051.81;;;-144.43;100.00
37486;BME280;23341;50.296;18.960;2023-08-07T06:08:30;53047.81;;;-144.43;100.00
37486;BME280;23341;50.296;18.960;2023-08-07T06:13:35;53033.81;;;-144.43;100.00
37486;BME280;23341;50.296;18.960;2023-08-07T06:18:39;53101.84;;;-144.43;100.00
37486;BME280;23341;50.296;18.960;2023-08-07T06:23:44;53077.84;;;-144.43;100.00
37486;BME280;23341;50.296;18.960;2023-08-07T06:28:49;53049.81;;;-144.43;100.00
37486;BME280;23341;50.296;18.960;2023-08-07T06:33:53;53117.84;;;-144.43;100.00
37486;BME280;23341;50.296;18.960;2023-08-07T06:38:56;53125.84;;;-144.43;100.00
37486;BME280;23341;50.296;18.960;2023-08-07T06:44:01;53099.84;;;-144.43;100.00
37486;BME280;23341;50.296;18.960;2023-08-07T06:49:05;53095.84;;;-144.43;100.00
37486;BME280;23341;50.296;18.960;2023-08-07T06:54:09;53093.84;;;-144.43;100.00
37486;BME280;23341;50.296;18.960;2023-08-07T06:59:14;53051.81;;;-144.43;100.00
37486;BME280;23341;50.296;18.960;2023-08-07T07:04:17;53013.81;;;-144.43;100.00
37486;BME280;23341;50.296;18.960;2023-08-07T07:09:21;53065.84;;;-144.43;100.00
37486;BME280;23341;50.296;18.960;2023-08-07T07:14:26;53095.84;;;-144.43;100.00
37486;BME280;23341;50.296;18.960;2023-08-07T07:19:30;53085.84;;;-144.43;100.00
37486;BME280;23341;50.296;18.960;2023-08-07T07:24:34;53079.84;;;-144.43;100.00
37486;BME280;23341;50.296;18.960;2023-08-07T07:29:39;53059.81;;;-144.43;100.00
37486;BME280;23341;50.296;18.960;2023-08-07T07:34:43;53067.84;;;-144.43;100.00
37486;BME280;23341;50.296;18.960;2023-08-07T07:39:47;53029.81;;;-144.43;100.00
37486;BME280;23341;50.296;18.960;2023-08-07T07:44:52;53065.84;;;-144.43;100.00
37486;BME280;23341;50.296;18.960;2023-08-07T07:50:05;53109.84;;;-144.43;100.00
37486;BME280;23341;50.296;18.960;2023-08-07T07:55:10;53087.84;;;-144.43;100.00
37486;BME280;23341;50.296;18.960;2023-08-07T08:00:17;53067.84;;;-144.43;100.00
37486;BME280;23341;50.296;18.960;2023-08-07T08:05:21;53039.81;;;-144.43;100.00
37486;BME280;23341;50.296;18.960;2023-08-07T08:10:25;53095.84;;;-144.43;100.00
37486;BME280;23341;50.296;18.960;2023-08-07T08:15:30;53097.84;;;-144.43;100.00
37486;BME280;23341;50.296;18.960;2023-08-07T08:20:34;53173.84;;;-144.43;100.00
37486;BME280;23341;50.296;18.960;2023-08-07T08:25:38;53107.84;;;-144.43;100.00
37486;BME280;23341;50.296;18.960;2023-08-07T08:30:43;53117.84;;;-144.43;100.00
37486;BME280;23341;50.296;18.960;2023-08-07T08:35:47;53101.84;;;-144.43;100.00
37486;BME280;23341;50.296;18.960;2023-08-07T08:40:51;53187.88;;;-144.43;100.00
37486;BME280;23341;50.296;18.960;2023-08-07T08:45:57;53187.88;;;-144.43;100.00
37486;BME280;23341;50.296;18.960;2023-08-07T08:51:01;53235.88;;;-144.43;100.00
37486;BME280;23341;50.296;18.960;2023-08-07T08:56:07;53209.88;;;-144.43;100.00
37486;BME280;23341;50.296;18.960;2023-08-07T09:01:12;53217.88;;;-144.43;100.00
37486;BME280;23341;50.296;18.960;2023-08-07T09:06:16;53205.88;;;-144.43;100.00
37486;BME280;23341;50.296;18.960;2023-08-07T09:11:20;53153.84;;;-144.43;100.00
37486;BME280;23341;50.296;18.960;2023-08-07T09:16:26;53195.88;;;-144.43;100.00
37486;BME280;23341;50.296;18.960;2023-08-07T09:21:31;53177.84;;;-144.43;100.00
37486;BME280;23341;50.296;18.960;2023-08-07T09:26:35;53193.88;;;-144.43;100.00
37486;BME280;23341;50.296;18.960;2023-08-07T09:31:43;53211.88;;;-144.43;100.00
37486;BME280;23341;50.296;18.960;2023-08-07T09:36:48;53201.88;;;-144.43;100.00
37486;BME280;23341;50.296;18.960;2023-08-07T09:41:51;53177.84;;;-144.43;100.00
37486;BME280;23341;50.296;18.960;2023-08-07T09:46:56;53191.88;;;-144.43;100.00
37486;BME280;23341;50.296;18.960;2023-08-07T09:52:05;53205.88;;;-144.43;100.00
37486;BME280;23341;50.296;18.960;2023-08-07T09:57:10;53209.88;;;-144.43;100.00
37486;BME280;23341;50.296;18.960;2023-08-07T10:02:15;53187.88;;;-144.43;100.00
37486;BME280;23341;50.296;18.960;2023-08-07T10:07:19;53181.88;;;-144.43;100.00
37486;BME280;23341;50.296;18.960;2023-08-07T10:12:24;53161.84;;;-144.43;100.00
37486;BME280;23341;50.296;18.960;2023-08-07T10:17:29;53025.81;;;-144.43;100.00
37486;BME280;23341;50.296;18.960;2023-08-07T10:22:34;53001.81;;;-144.43;100.00
37486;BME280;23341;50.296;18.960;2023-08-07T10:27:42;53017.81;;;-144.43;100.00
37486;BME280;23341;50.296;18.960;2023-08-07T10:32:48;53033.81;;;-144.43;100.00
37486;BME280;23341;50.296;18.960;2023-08-07T10:37:52;53029.81;;;-144.43;100.00
37486;BME280;23341;50.296;18.960;2023-08-07T10:42:57;53017.81;;;-144.43;100.00
37486;BME280;23341;50.296;18.960;2023-08-07T10:48:05;53019.81;;;-144.43;100.00
37486;BME280;23341;50.296;18.960;2023-08-07T10:53:19;53013.81;;;-144.43;100.00
37486;BME280;23341;50.296;18.960;2023-08-07T10:58:24;52989.81;;;-144.43;100.00
37486;BME280;23341;50.296;18.960;2023-08-07T11:03:35;52947.81;;;-144.43;100.00
37486;BME280;23341;50.296;18.960;2023-08-07T11:08:39;53041.81;;;-144.43;100.00
37486;BME280;23341;50.296;18.960;2023-08-07T11:13:43;53033.81;;;-144.43;100.00
37486;BME280;23341;50.296;18.960;2023-08-07T11:18:49;53041.81;;;-144.43;100.00
37486;BME280;23341;50.296;18.960;2023-08-07T11:23:52;53097.84;;;-144.43;100.00
37486;BME280;23341;50.296;18.960;2023-08-07T11:28:56;53069.84;;;-144.43;100.00
37486;BME280;23341;50.296;18.960;2023-08-07T11:34:02;53113.84;;;-144.43;100.00
37486;BME280;23341;50.296;18.960;2023-08-07T11:39:06;53141.84;;;-144.43;100.00
37486;BME280;23341;50.296;18.960;2023-08-07T11:44:10;53261.88;;;-144.43;100.00
37486;BME280;23341;50.296;18.960;2023-08-07T11:49:15;53179.88;;;-144.43;100.00
37486;BME280;23341;50.296;18.960;2023-08-07T11:54:19;53225.88;;;-144.43;100.00
37486;BME280;23341;50.296;18.960;2023-08-07T11:59:22;53293.91;;;-144.43;100.00
37486;BME280;23341;50.296;18.960;2023-08-07T12:04:30;53301.91;;;-144.43;100.00
37486;BME280;23341;50.296;18.960;2023-08-07T12:09:34;53281.88;;;-144.43;100.00
37486;BME280;23341;50.296;18.960;2023-08-07T12:14:38;53309.91;;;-144.43;100.00
37486;BME280;23341;50.296;18.960;2023-08-07T12:19:45;53261.88;;;-144.43;100.00
37486;BME280;23341;50.296;18.960;2023-08-07T12:24:49;53285.88;;;-144.43;100.00
37486;BME280;23341;50.296;18.960;2023-08-07T12:29:53;53255.88;;;-144.43;100.00
37486;BME280;23341;50.296;18.960;2023-08-07T12:34:58;53255.88;;;-144.43;100.00
37486;BME280;23341;50.296;18.960;2023-08-07T12:40:05;53299.91;;;-144.43;100.00
37486;BME280;23341;50.296;18.960;2023-08-07T12:45:13;53285.88;;;-144.43;100.00
37486;BME280;23341;50.296;18.960;2023-08-07T12:50:20;53183.88;;;-144.43;100.00
37486;BME280;23341;50.296;18.960;2023-08-07T12:55:24;53233.88;;;-144.43;100.00
37486;BME280;23341;50.296;18.960;2023-08-07T13:00:28;53341.91;;;-144.43;100.00
37486;BME280;23341;50.296;18.960;2023-08-07T13:05:33;53317.91;;;-144.43;100.00
37486;BME280;23341;50.296;18.960;2023-08-07T13:10:39;53417.94;;;-144.43;100.00
37486;BME280;23341;50.296;18.960;2023-08-07T13:15:43;53417.94;;;-144.43;100.00
37486;BME280;23341;50.296;18.960;2023-08-07T13:20:48;53489.97;;;-144.43;100.00
37486;BME280;23341;50.296;18.960;2023-08-07T13:25:52;53379.91;;;-144.43;100.00
37486;BME280;23341;50.296;18.960;2023-08-07T13:30:55;53525.97;;;-144.43;100.00
37486;BME280;23341;50.296;18.960;2023-08-07T13:36:02;53786.06;;;-144.43;100.00
37486;BME280;23341;50.296;18.960;2023-08-07T13:41:06;54114.22;;;-144.43;100.00
37486;BME280;23341;50.296;18.960;2023-08-07T13:46:10;53740.06;;;-144.43;100.00
37486;BME280;23341;50.296;18.960;2023-08-07T13:51:15;53632.00;;;-144.43;100.00
37486;BME280;23341;50.296;18.960;2023-08-07T13:56:18;53427.94;;;-144.43;100.00
37486;BME280;23341;50.296;18.960;2023-08-07T14:01:23;53417.94;;;-144.43;100.00
37486;BME280;23341;50.296;18.960;2023-08-07T14:06:28;53495.97;;;-144.43;100.00
37486;BME280;23341;50.296;18.960;2023-08-07T14:11:32;54414.41;;;-144.43;96.00
37486;BME280;23341;50.296;18.960;2023-08-07T14:16:35;54062.22;;;-144.43;100.00
37486;BME280;23341;50.296;18.960;2023-08-07T14:21:42;53860.09;;;-144.43;100.00
37486;BME280;23341;50.296;18.960;2023-08-07T14:26:47;53618.00;;;-144.43;100.00
37486;BME280;23341;50.296;18.960;2023-08-07T14:31:50;53427.94;;;-144.43;100.00
37486;BME280;23341;50.296;18.960;2023-08-07T14:36:55;53465.94;;;-144.43;100.00
37486;BME280;23341;50.296;18.960;2023-08-07T14:41:59;53640.03;;;-144.43;100.00
37486;BME280;23341;50.296;18.960;2023-08-07T14:47:03;53477.97;;;-144.43;100.00
37486;BME280;23341;50.296;18.960;2023-08-07T14:52:08;53273.88;;;-144.43;100.00
37486;BME280;23341;50.296;18.960;2023-08-07T14:57:12;53139.84;;;-144.43;100.00
37486;BME280;23341;50.296;18.960;2023-08-07T15:02:16;53145.84;;;-144.43;100.00
37486;BME280;23341;50.296;18.960;2023-08-07T15:07:21;52985.81;;;-144.43;100.00
37486;BME280;23341;50.296;18.960;2023-08-07T15:12:24;52975.81;;;-144.43;100.00
37486;BME280;23341;50.296;18.960;2023-08-07T15:17:28;53045.81;;;-144.43;100.00
37486;BME280;23341;50.296;18.960;2023-08-07T15:22:33;53045.81;;;-144.43;100.00
37486;BME280;23341;50.296;18.960;2023-08-07T15:27:37;53075.84;;;-144.43;100.00
37486;BME280;23341;50.296;18.960;2023-08-07T15:32:40;53081.84;;;-144.43;100.00
37486;BME280;23341;50.296;18.960;2023-08-07T15:37:45;53109.84;;;-144.43;100.00
37486;BME280;23341;50.296;18.960;2023-08-07T15:42:49;53205.88;;;-144.43;100.00
37486;BME280;23341;50.296;18.960;2023-08-07T15:47:53;53521.97;;;-144.43;100.00
37486;BME280;23341;50.296;18.960;2023-08-07T15:52:58;53487.97;;;-144.43;100.00
37486;BME280;23341;50.296;18.960;2023-08-07T15:58:04;53349.91;;;-144.43;100.00
37486;BME280;23341;50.296;18.960;2023-08-07T16:03:08;53447.94;;;-144.43;100.00
37486;BME280;23341;50.296;18.960;2023-08-07T16:08:14;53493.97;;;-144.43;100.00
37486;BME280;23341;50.296;18.960;2023-08-07T16:13:17;53409.94;;;-144.43;100.00
37486;BME280;23341;50.296;18.960;2023-08-07T16:18:22;53417.94;;;-144.43;100.00
37486;BME280;23341;50.296;18.960;2023-08-07T16:23:27;53347.91;;;-144.43;100.00
37486;BME280;23341;50.296;18.960;2023-08-07T16:28:31;53327.91;;;-144.43;100.00
37486;BME280;23341;50.296;18.960;2023-08-07T16:33:35;53351.91;;;-144.43;100.00
37486;BME280;23341;50.296;18.960;2023-08-07T16:38:40;53285.88;;;-144.43;100.00
37486;BME280;23341;50.296;18.960;2023-08-07T16:43:43;53267.88;;;-144.43;100.00
37486;BME280;23341;50.296;18.960;2023-08-07T16:48:47;53291.91;;;-144.43;100.00
37486;BME280;23341;50.296;18.960;2023-08-07T16:53:52;53349.91;;;-144.43;100.00
37486;BME280;23341;50.296;18.960;2023-08-07T16:58:56;53309.91;;;-144.43;100.00
37486;BME280;23341;50.296;18.960;2023-08-07T17:04:00;53309.91;;;-144.43;100.00
37486;BME280;23341;50.296;18.960;2023-08-07T17:09:05;53221.88;;;-144.43;100.00
37486;BME280;23341;50.296;18.960;2023-08-07T17:14:09;53205.88;;;-144.43;100.00
37486;BME280;23341;50.296;18.960;2023-08-07T17:19:13;53255.88;;;-144.43;100.00
37486;BME280;23341;50.296;18.960;2023-08-07T17:24:18;53215.88;;;-144.43;100.00
37486;BME280;23341;50.296;18.960;2023-08-07T17:29:22;53193.88;;;-144.43;100.00
37486;BME280;23341;50.296;18.960;2023-08-07T17:34:26;53177.84;;;-144.43;100.00
37486;BME280;23341;50.296;18.960;2023-08-07T17:39:31;53211.88;;;-144.43;100.00
37486;BME280;23341;50.296;18.960;2023-08-07T17:44:35;53169.84;;;-144.43;100.00
37486;BME280;23341;50.296;18.960;2023-08-07T17:49:39;53157.84;;;-144.43;100.00
37486;BME280;23341;50.296;18.960;2023-08-07T17:54:46;53127.84;;;-144.43;100.00
37486;BME280;23341;50.296;18.960;2023-08-07T17:59:52;53123.84;;;-144.43;100.00
37486;BME280;23341;50.296;18.960;2023-08-07T18:04:56;53101.84;;;-144.43;100.00
37486;BME280;23341;50.296;18.960;2023-08-07T18:10:01;53121.84;;;-144.43;100.00
37486;BME280;23341;50.296;18.960;2023-08-07T18:15:06;53123.84;;;-144.43;100.00
37486;BME280;23341;50.296;18.960;2023-08-07T18:20:10;53125.84;;;-144.43;100.00
37486;BME280;23341;50.296;18.960;2023-08-07T18:25:16;53113.84;;;-144.43;100.00
37486;BME280;23341;50.296;18.960;2023-08-07T18:30:19;53121.84;;;-144.43;100.00
37486;BME280;23341;50.296;18.960;2023-08-07T18:35:23;53085.84;;;-144.43;100.00
37486;BME280;23341;50.296;18.960;2023-08-07T18:40:28;53043.81;;;-144.43;100.00
37486;BME280;23341;50.296;18.960;2023-08-07T18:45:32;53041.81;;;-144.43;100.00
37486;BME280;23341;50.296;18.960;2023-08-07T18:50:36;53065.84;;;-144.43;100.00
37486;BME280;23341;50.296;18.960;2023-08-07T18:55:41;53065.84;;;-144.43;100.00
37486;BME280;23341;50.296;18.960;2023-08-07T19:00:45;53043.81;;;-144.43;100.00
37486;BME280;23341;50.296;18.960;2023-08-07T19:05:48;53033.81;;;-144.43;100.00
37486;BME280;23341;50.296;18.960;2023-08-07T19:10:53;53017.81;;;-144.43;100.00
37486;BME280;23341;50.296;18.960;2023-08-07T19:15:57;53017.81;;;-144.43;100.00
37486;BME280;23341;50.296;18.960;2023-08-07T19:21:01;52999.81;;;-144.43;100.00
37486;BME280;23341;50.296;18.960;2023-08-07T19:26:06;53063.81;;;-144.43;100.00
37486;BME280;23341;50.296;18.960;2023-08-07T19:31:10;53037.81;;;-144.43;100.00
37486;BME280;23341;50.296;18.960;2023-08-07T19:36:14;52989.81;;;-144.43;100.00
37486;BME280;23341;50.296;18.960;2023-08-07T19:41:19;53017.81;;;-144.43;100.00
37486;BME280;23341;50.296;18.960;2023-08-07T19:46:23;52973.81;;;-144.43;100.00
37486;BME280;23341;50.296;18.960;2023-08-07T19:51:29;52971.81;;;-144.43;100.00
37486;BME280;23341;50.296;18.960;2023-08-07T19:56:35;53019.81;;;-144.43;100.00
37486;BME280;23341;50.296;18.960;2023-08-07T20:01:39;52979.81;;;-144.43;100.00
37486;BME280;23341;50.296;18.960;2023-08-07T20:06:43;53001.81;;;-144.43;100.00
37486;BME280;23341;50.296;18.960;2023-08-07T20:11:48;52991.81;;;-144.43;100.00
37486;BME280;23341;50.296;18.960;2023-08-07T20:16:52;52963.81;;;-144.43;100.00
37486;BME280;23341;50.296;18.960;2023-08-07T20:21:56;52957.81;;;-144.43;100.00
37486;BME280;23341;50.296;18.960;2023-08-07T20:27:02;52947.81;;;-144.43;100.00
37486;BME280;23341;50.296;18.960;2023-08-07T20:32:06;52937.81;;;-144.43;100.00
37486;BME280;23341;50.296;18.960;2023-08-07T20:37:10;52911.78;;;-144.43;100.00
37486;BME280;23341;50.296;18.960;2023-08-07T20:42:15;52909.78;;;-144.43;100.00
37486;BME280;23341;50.296;18.960;2023-08-07T20:47:19;52917.78;;;-144.43;100.00
37486;BME280;23341;50.296;18.960;2023-08-07T20:52:23;52937.81;;;-144.43;100.00
37486;BME280;23341;50.296;18.960;2023-08-07T20:57:28;52911.78;;;-144.43;100.00
37486;BME280;23341;50.296;18.960;2023-08-07T21:02:32;52937.81;;;-144.43;100.00
37486;BME280;23341;50.296;18.960;2023-08-07T21:07:36;52905.78;;;-144.43;100.00
37486;BME280;23341;50.296;18.960;2023-08-07T21:12:41;52905.78;;;-144.43;100.00
37486;BME280;23341;50.296;18.960;2023-08-07T21:17:45;52917.78;;;-144.43;100.00
37486;BME280;23341;50.296;18.960;2023-08-07T21:22:48;52909.78;;;-144.43;100.00
37486;BME280;23341;50.296;18.960;2023-08-07T21:27:53;52871.78;;;-144.43;100.00
37486;BME280;23341;50.296;18.960;2023-08-07T21:32:57;52905.78;;;-144.43;100.00
37486;BME280;23341;50.296;18.960;2023-08-07T21:38:01;52897.78;;;-144.43;100.00
37486;BME280;23341;50.296;18.960;2023-08-07T21:43:06;52865.78;;;-144.43;100.00
37486;BME280;23341;50.296;18.960;2023-08-07T21:48:10;52903.78;;;-144.43;100.00
37486;BME280;23341;50.296;18.960;2023-08-07T21:53:14;52925.78;;;-144.43;100.00
37486;BME280;23341;50.296;18.960;2023-08-07T21:58:19;52865.78;;;-144.43;100.00
37486;BME280;23341;50.296;18.960;2023-08-07T22:03:23;52869.78;;;-144.43;100.00
37486;BME280;23341;50.296;18.960;2023-08-07T22:08:27;52849.78;;;-144.43;100.00
37486;BME280;23341;50.296;18.960;2023-08-07T22:13:36;52879.78;;;-144.43;100.00
37486;BME280;23341;50.296;18.960;2023-08-07T22:18:39;52837.78;;;-144.43;100.00
37486;BME280;23341;50.296;18.960;2023-08-07T22:23:44;52867.78;;;-144.43;100.00
37486;BME280;23341;50.296;18.960;2023-08-07T22:28:49;52859.78;;;-144.43;100.00
37486;BME280;23341;50.296;18.960;2023-08-07T22:33:52;52831.78;;;-144.43;100.00
37486;BME280;23341;50.296;18.960;2023-08-07T22:38:57;52857.78;;;-144.43;100.00
37486;BME280;23341;50.296;18.960;2023-08-07T22:44:02;52809.78;;;-144.43;100.00
37486;BME280;23341;50.296;18.960;2023-08-07T22:49:06;52853.78;;;-144.43;100.00
37486;BME280;23341;50.296;18.960;2023-08-07T22:54:09;52857.78;;;-144.43;100.00
37486;BME280;23341;50.296;18.960;2023-08-07T22:59:15;52865.78;;;-144.43;100.00
37486;BME280;23341;50.296;18.960;2023-08-07T23:04:19;52853.78;;;-144.43;100.00
37486;BME280;23341;50.296;18.960;2023-08-07T23:09:22;52843.78;;;-144.43;100.00
37486;BME280;23341;50.296;18.960;2023-08-07T23:14:27;52807.78;;;-144.43;100.00
37486;BME280;23341;50.296;18.960;2023-08-07T23:19:31;52847.78;;;-144.43;100.00
37486;BME280;23341;50.296;18.960;2023-08-07T23:24:35;52873.78;;;-144.43;100.00
37486;BME280;23341;50.296;18.960;2023-08-07T23:29:41;52845.78;;;-144.43;100.00
37486;BME280;23341;50.296;18.960;2023-08-07T23:34:45;52797.78;;;-144.43;100.00
37486;BME280;23341;50.296;18.960;2023-08-07T23:39:49;52827.78;;;-144.43;100.00
37486;BME280;23341;50.296;18.960;2023-08-07T23:44:54;52783.78;;;-144.43;100.00
37486;BME280;23341;50.296;18.960;2023-08-07T23:49:57;52817.78;;;-144.43;100.00
37486;BME280;23341;50.296;18.960;2023-08-07T23:55:01;52787.78;;;-144.43;100.00
